createdAt,value
2023-12-09T00:00:07.243Z,945.56
2023-12-09T00:00:17.259Z,945.55
2023-12-09T00:00:27.190Z,945.54
2023-12-09T00:00:37.160Z,945.56
2023-12-09T00:00:57.167Z,945.53
2023-12-09T00:01:07.326Z,945.53
2023-12-09T00:01:17.149Z,945.53
2023-12-09T00:01:27.225Z,945.52
2023-12-09T00:01:37.193Z,945.52
2023-12-09T00:01:47.165Z,945.52
2023-12-09T00:01:57.172Z,945.54
2023-12-09T00:02:07.155Z,945.53
2023-12-09T00:02:17.148Z,945.53
2023-12-09T00:02:27.316Z,945.54
2023-12-09T00:02:37.177Z,945.55
2023-12-09T00:02:47.158Z,945.56
2023-12-09T00:02:57.198Z,945.55
2023-12-09T00:03:07.212Z,945.55
2023-12-09T00:03:17.266Z,945.57
2023-12-09T00:03:37.274Z,945.57
2023-12-09T00:03:47.213Z,945.57
2023-12-09T00:03:57.318Z,945.56
2023-12-09T00:04:07.195Z,945.56
2023-12-09T00:04:17.177Z,945.56
2023-12-09T00:04:27.969Z,945.56
2023-12-09T00:04:37.267Z,945.54
2023-12-09T00:04:47.186Z,945.55
2023-12-09T00:05:07.195Z,945.53
2023-12-09T00:05:17.166Z,945.53
2023-12-09T00:05:27.163Z,945.53
2023-12-09T00:05:37.318Z,945.53
2023-12-09T00:05:47.211Z,945.52
2023-12-09T00:05:57.400Z,945.52
2023-12-09T00:06:07.324Z,945.51
2023-12-09T00:06:17.993Z,945.53
2023-12-09T00:06:27.282Z,945.52
2023-12-09T00:06:37.260Z,945.52
2023-12-09T00:06:57.327Z,945.51
2023-12-09T00:07:07.238Z,945.52
2023-12-09T00:07:17.231Z,945.55
2023-12-09T00:07:27.178Z,945.55
2023-12-09T00:07:37.934Z,945.53
2023-12-09T00:07:47.200Z,945.55
2023-12-09T00:07:57.232Z,945.54
2023-12-09T00:08:17.218Z,945.54
2023-12-09T00:08:27.220Z,945.54
2023-12-09T00:08:37.176Z,945.53
2023-12-09T00:08:47.188Z,945.53
2023-12-09T00:08:57.275Z,945.52
2023-12-09T00:09:07.235Z,945.52
2023-12-09T00:09:27.269Z,945.52
2023-12-09T00:09:37.262Z,945.52
2023-12-09T00:09:47.946Z,945.52
2023-12-09T00:09:57.231Z,945.52
2023-12-09T00:10:07.209Z,945.51
2023-12-09T00:10:17.178Z,945.52
2023-12-09T00:10:37.188Z,945.52
2023-12-09T00:10:47.192Z,945.52
2023-12-09T00:10:57.186Z,945.52
2023-12-09T00:11:07.210Z,945.53
2023-12-09T00:11:17.210Z,945.49
2023-12-09T00:11:27.202Z,945.52
2023-12-09T00:11:37.202Z,945.52
2023-12-09T00:11:47.203Z,945.51
2023-12-09T00:11:57.224Z,945.50
2023-12-09T00:12:17.284Z,945.49
2023-12-09T00:12:27.548Z,945.49
2023-12-09T00:12:37.231Z,945.50
2023-12-09T00:12:47.224Z,945.49
2023-12-09T00:12:57.219Z,945.49
2023-12-09T00:13:07.204Z,945.49
2023-12-09T00:13:24.974Z,945.46
2023-12-09T00:13:37.203Z,945.48
2023-12-09T00:13:47.209Z,945.48
2023-12-09T00:13:57.201Z,945.48
2023-12-09T00:14:07.202Z,945.48
2023-12-09T00:14:17.217Z,945.48
2023-12-09T00:14:27.225Z,945.48
2023-12-09T00:14:37.206Z,945.48
2023-12-09T00:14:47.230Z,945.48
2023-12-09T00:14:57.255Z,945.48
2023-12-09T00:15:07.269Z,945.48
2023-12-09T00:15:17.281Z,945.48
2023-12-09T00:15:27.260Z,945.48
2023-12-09T00:15:37.221Z,945.50
2023-12-09T00:15:57.216Z,945.51
2023-12-09T00:16:07.209Z,945.52
2023-12-09T00:16:17.218Z,945.52
2023-12-09T00:16:27.224Z,945.53
2023-12-09T00:16:37.216Z,945.52
2023-12-09T00:16:47.218Z,945.52
2023-12-09T00:16:57.229Z,945.53
2023-12-09T00:17:07.230Z,945.52
2023-12-09T00:17:17.229Z,945.52
2023-12-09T00:17:27.275Z,945.52
2023-12-09T00:17:37.264Z,945.52
2023-12-09T00:17:47.269Z,945.52
2023-12-09T00:17:57.291Z,945.52
2023-12-09T00:18:07.365Z,945.53
2023-12-09T00:18:17.319Z,945.53
2023-12-09T00:18:37.324Z,945.52
2023-12-09T00:18:47.353Z,945.50
2023-12-09T00:18:57.392Z,945.50
2023-12-09T00:19:07.308Z,945.48
2023-12-09T00:19:17.346Z,945.49
2023-12-09T00:19:27.292Z,945.50
2023-12-09T00:19:37.261Z,945.50
2023-12-09T00:19:47.289Z,945.51
2023-12-09T00:19:57.231Z,945.51
2023-12-09T00:20:17.258Z,945.51
2023-12-09T00:20:27.254Z,945.51
2023-12-09T00:20:37.243Z,945.50
2023-12-09T00:20:47.247Z,945.50
2023-12-09T00:20:57.276Z,945.51
2023-12-09T00:21:07.263Z,945.52
2023-12-09T00:21:17.320Z,945.51
2023-12-09T00:21:37.262Z,945.53
2023-12-09T00:21:47.262Z,945.52
2023-12-09T00:21:57.254Z,945.52
2023-12-09T00:22:07.245Z,945.52
2023-12-09T00:22:17.271Z,945.52
2023-12-09T00:22:27.666Z,945.50
2023-12-09T00:22:47.245Z,945.51
2023-12-09T00:22:57.264Z,945.52
2023-12-09T00:23:07.266Z,945.53
2023-12-09T00:23:17.246Z,945.54
2023-12-09T00:23:27.251Z,945.53
2023-12-09T00:23:47.068Z,945.54
2023-12-09T00:23:48.698Z,945.55
2023-12-09T00:24:07.258Z,945.55
2023-12-09T00:24:17.303Z,945.54
2023-12-09T00:24:27.312Z,945.55
2023-12-09T00:24:37.335Z,945.55
2023-12-09T00:24:47.269Z,945.54
2023-12-09T00:24:57.264Z,945.54
2023-12-09T00:25:07.259Z,945.55
2023-12-09T00:25:17.277Z,945.53
2023-12-09T00:25:27.255Z,945.54
2023-12-09T00:25:47.240Z,945.53
2023-12-09T00:25:57.261Z,945.53
2023-12-09T00:26:07.269Z,945.52
2023-12-09T00:26:17.270Z,945.51
2023-12-09T00:26:27.260Z,945.51
2023-12-09T00:26:37.267Z,945.53
2023-12-09T00:26:47.257Z,945.53
2023-12-09T00:26:57.294Z,945.53
2023-12-09T00:27:07.357Z,945.53
2023-12-09T00:27:17.314Z,945.53
2023-12-09T00:27:27.366Z,945.53
2023-12-09T00:27:37.297Z,945.54
2023-12-09T00:27:47.282Z,945.54
2023-12-09T00:27:57.284Z,945.54
2023-12-09T00:28:07.271Z,945.55
2023-12-09T00:28:17.269Z,945.56
2023-12-09T00:28:27.290Z,945.55
2023-12-09T00:28:47.276Z,945.57
2023-12-09T00:28:57.269Z,945.56
2023-12-09T00:29:07.304Z,945.58
2023-12-09T00:29:17.284Z,945.58
2023-12-09T00:29:27.277Z,945.59
2023-12-09T00:29:37.278Z,945.59
2023-12-09T00:29:47.292Z,945.58
2023-12-09T00:29:57.298Z,945.59
2023-12-09T00:30:07.407Z,945.57
2023-12-09T00:30:17.350Z,945.58
2023-12-09T00:30:27.308Z,945.58
2023-12-09T00:30:37.343Z,945.58
2023-12-09T00:30:47.297Z,945.58
2023-12-09T00:30:57.285Z,945.58
2023-12-09T00:31:07.288Z,945.58
2023-12-09T00:31:17.278Z,945.58
2023-12-09T00:31:27.292Z,945.58
2023-12-09T00:31:37.275Z,945.58
2023-12-09T00:31:57.318Z,945.59
2023-12-09T00:32:07.311Z,945.59
2023-12-09T00:32:17.324Z,945.59
2023-12-09T00:32:27.622Z,945.60
2023-12-09T00:32:37.411Z,945.59
2023-12-09T00:32:47.355Z,945.60
2023-12-09T00:32:57.392Z,945.60
2023-12-09T00:33:17.364Z,945.61
2023-12-09T00:33:27.370Z,945.61
2023-12-09T00:33:37.421Z,945.62
2023-12-09T00:33:47.437Z,945.61
2023-12-09T00:33:57.334Z,945.62
2023-12-09T00:34:07.372Z,945.63
2023-12-09T00:34:17.395Z,945.63
2023-12-09T00:34:27.433Z,945.63
2023-12-09T00:34:37.312Z,945.64
2023-12-09T00:34:47.314Z,945.62
2023-12-09T00:34:57.310Z,945.64
2023-12-09T00:35:07.311Z,945.64
2023-12-09T00:35:27.301Z,945.63
2023-12-09T00:35:37.300Z,945.63
2023-12-09T00:35:47.309Z,945.63
2023-12-09T00:35:57.359Z,945.62
2023-12-09T00:36:07.346Z,945.61
2023-12-09T00:36:17.351Z,945.63
2023-12-09T00:36:27.378Z,945.62
2023-12-09T00:36:37.353Z,945.63
2023-12-09T00:36:47.347Z,945.63
2023-12-09T00:36:57.317Z,945.63
2023-12-09T00:37:07.312Z,945.63
2023-12-09T00:37:17.317Z,945.63
2023-12-09T00:37:27.310Z,945.63
2023-12-09T00:37:37.313Z,945.66
2023-12-09T00:37:57.319Z,945.63
2023-12-09T00:38:07.320Z,945.65
2023-12-09T00:38:17.319Z,945.64
2023-12-09T00:38:27.326Z,945.64
2023-12-09T00:38:37.324Z,945.65
2023-12-09T00:38:47.330Z,945.64
2023-12-09T00:38:57.339Z,945.64
2023-12-09T00:39:07.402Z,945.65
2023-12-09T00:39:17.403Z,945.65
2023-12-09T00:39:27.345Z,945.65
2023-12-09T00:39:37.357Z,945.65
2023-12-09T00:39:47.386Z,945.66
2023-12-09T00:39:57.346Z,945.66
2023-12-09T00:40:07.323Z,945.67
2023-12-09T00:40:17.325Z,945.66
2023-12-09T00:40:27.323Z,945.67
2023-12-09T00:40:37.328Z,945.68
2023-12-09T00:40:57.332Z,945.68
2023-12-09T00:41:07.334Z,945.68
2023-12-09T00:41:17.333Z,945.69
2023-12-09T00:41:27.338Z,945.68
2023-12-09T00:41:37.336Z,945.68
2023-12-09T00:41:47.320Z,945.68
2023-12-09T00:41:57.349Z,945.68
2023-12-09T00:42:07.382Z,945.69
2023-12-09T00:42:17.362Z,945.69
2023-12-09T00:42:27.594Z,945.69
2023-12-09T00:42:47.373Z,945.68
2023-12-09T00:42:57.352Z,945.68
2023-12-09T00:43:07.371Z,945.68
2023-12-09T00:43:17.341Z,945.68
2023-12-09T00:43:27.336Z,945.69
2023-12-09T00:43:37.348Z,945.68
2023-12-09T00:43:47.345Z,945.69
2023-12-09T00:44:07.345Z,945.68
2023-12-09T00:44:17.356Z,945.69
2023-12-09T00:44:27.359Z,945.68
2023-12-09T00:44:37.364Z,945.69
2023-12-09T00:44:47.347Z,945.69
2023-12-09T00:44:57.394Z,945.68
2023-12-09T00:45:07.389Z,945.69
2023-12-09T00:45:17.382Z,945.67
2023-12-09T00:45:27.363Z,945.68
2023-12-09T00:45:47.350Z,945.66
2023-12-09T00:45:57.351Z,945.68
2023-12-09T00:46:07.365Z,945.68
2023-12-09T00:46:17.348Z,945.68
2023-12-09T00:46:27.358Z,945.67
2023-12-09T00:46:37.354Z,945.68
2023-12-09T00:46:47.358Z,945.68
2023-12-09T00:46:57.362Z,945.67
2023-12-09T00:47:07.369Z,945.67
2023-12-09T00:47:17.358Z,945.68
2023-12-09T00:47:37.442Z,945.68
2023-12-09T00:47:47.468Z,945.68
2023-12-09T00:47:57.568Z,945.68
2023-12-09T00:48:07.561Z,945.69
2023-12-09T00:48:17.528Z,945.68
2023-12-09T00:48:27.448Z,945.69
2023-12-09T00:48:37.452Z,945.69
2023-12-09T00:48:47.473Z,945.70
2023-12-09T00:49:07.455Z,945.70
2023-12-09T00:49:17.491Z,945.69
2023-12-09T00:49:27.509Z,945.69
2023-12-09T00:49:37.432Z,945.69
2023-12-09T00:49:47.431Z,945.70
2023-12-09T00:49:57.416Z,945.72
2023-12-09T00:50:07.490Z,945.71
2023-12-09T00:50:27.371Z,945.69
2023-12-09T00:50:37.372Z,945.68
2023-12-09T00:50:47.373Z,945.68
2023-12-09T00:50:57.421Z,945.70
2023-12-09T00:51:07.411Z,945.70
2023-12-09T00:51:17.403Z,945.69
2023-12-09T00:51:27.401Z,945.69
2023-12-09T00:51:37.429Z,945.70
2023-12-09T00:51:47.374Z,945.71
2023-12-09T00:51:57.376Z,945.69
2023-12-09T00:52:07.402Z,945.71
2023-12-09T00:52:17.376Z,945.71
2023-12-09T00:52:27.675Z,945.70
2023-12-09T00:52:37.387Z,945.70
2023-12-09T00:52:47.385Z,945.70
2023-12-09T00:52:57.379Z,945.71
2023-12-09T00:53:17.384Z,945.72
2023-12-09T00:53:27.385Z,945.72
2023-12-09T00:53:37.391Z,945.73
2023-12-09T00:53:47.425Z,945.73
2023-12-09T00:53:57.430Z,945.73
2023-12-09T00:54:07.411Z,945.75
2023-12-09T00:54:17.437Z,945.74
2023-12-09T00:54:27.433Z,945.75
2023-12-09T00:54:37.426Z,945.76
2023-12-09T00:54:57.400Z,945.74
2023-12-09T00:55:07.426Z,945.72
2023-12-09T00:55:17.419Z,945.72
2023-12-09T00:55:27.390Z,945.72
2023-12-09T00:55:37.394Z,945.72
2023-12-09T00:55:47.397Z,945.75
2023-12-09T00:55:57.394Z,945.74
2023-12-09T00:56:33.033Z,945.75
2023-12-09T00:56:34.318Z,945.74
2023-12-09T00:56:38.395Z,945.75
2023-12-09T00:56:47.416Z,945.74
2023-12-09T00:56:57.501Z,945.73
2023-12-09T00:57:07.445Z,945.74
2023-12-09T00:57:17.447Z,945.75
2023-12-09T00:57:37.466Z,945.74
2023-12-09T00:57:47.405Z,945.75
2023-12-09T00:57:57.402Z,945.75
2023-12-09T00:58:07.438Z,945.76
2023-12-09T00:58:17.407Z,945.74
2023-12-09T00:58:27.424Z,945.75
2023-12-09T00:58:37.396Z,945.75
2023-12-09T00:58:47.410Z,945.76
2023-12-09T00:58:57.417Z,945.76
2023-12-09T00:59:07.409Z,945.75
2023-12-09T00:59:17.408Z,945.76
2023-12-09T00:59:27.410Z,945.75
2023-12-09T00:59:37.408Z,945.77
2023-12-09T00:59:47.417Z,945.75
2023-12-09T00:59:57.474Z,945.76
2023-12-09T01:00:07.449Z,945.76
2023-12-09T01:00:17.455Z,945.76
2023-12-09T01:00:27.468Z,945.76
2023-12-09T01:00:37.460Z,945.77
2023-12-09T01:00:47.514Z,945.76
2023-12-09T01:01:07.447Z,945.76
2023-12-09T01:01:17.426Z,945.78
2023-12-09T01:01:27.441Z,945.77
2023-12-09T01:01:37.422Z,945.78
2023-12-09T01:01:47.424Z,945.78
2023-12-09T01:01:57.434Z,945.79
2023-12-09T01:02:17.430Z,945.80
2023-12-09T01:02:27.911Z,945.80
2023-12-09T01:02:37.444Z,945.81
2023-12-09T01:02:47.454Z,945.79
2023-12-09T01:02:57.509Z,945.79
2023-12-09T01:03:07.485Z,945.79
2023-12-09T01:03:17.521Z,945.80
2023-12-09T01:03:27.485Z,945.79
2023-12-09T01:03:37.584Z,945.80
2023-12-09T01:03:57.577Z,945.78
2023-12-09T01:04:07.505Z,945.78
2023-12-09T01:04:17.510Z,945.78
2023-12-09T01:04:27.496Z,945.79
2023-12-09T01:04:37.467Z,945.78
2023-12-09T01:04:47.469Z,945.77
2023-12-09T01:04:57.467Z,945.76
2023-12-09T01:05:07.459Z,945.75
2023-12-09T01:05:17.454Z,945.74
2023-12-09T01:05:27.433Z,945.75
2023-12-09T01:05:47.443Z,945.78
2023-12-09T01:05:57.512Z,945.78
2023-12-09T01:06:07.472Z,945.79
2023-12-09T01:06:17.552Z,945.78
2023-12-09T01:06:27.516Z,945.78
2023-12-09T01:06:37.490Z,945.80
2023-12-09T01:06:47.449Z,945.79
2023-12-09T01:06:57.446Z,945.80
2023-12-09T01:07:07.432Z,945.78
2023-12-09T01:07:17.445Z,945.77
2023-12-09T01:07:27.493Z,945.81
2023-12-09T01:07:37.428Z,945.80
2023-12-09T01:07:47.453Z,945.80
2023-12-09T01:07:57.450Z,945.81
2023-12-09T01:08:07.457Z,945.81
2023-12-09T01:08:17.460Z,945.81
2023-12-09T01:08:27.452Z,945.82
2023-12-09T01:08:37.458Z,945.82
2023-12-09T01:08:47.449Z,945.81
2023-12-09T01:08:57.513Z,945.82
2023-12-09T01:09:17.460Z,945.81
2023-12-09T01:09:27.491Z,945.81
2023-12-09T01:09:37.536Z,945.82
2023-12-09T01:09:47.461Z,945.81
2023-12-09T01:09:57.496Z,945.81
2023-12-09T01:10:07.462Z,945.81
2023-12-09T01:10:17.460Z,945.81
2023-12-09T01:10:27.469Z,945.81
2023-12-09T01:10:37.466Z,945.80
2023-12-09T01:10:47.469Z,945.81
2023-12-09T01:11:07.478Z,945.81
2023-12-09T01:11:17.488Z,945.82
2023-12-09T01:11:27.465Z,945.83
2023-12-09T01:11:37.476Z,945.84
2023-12-09T01:11:47.474Z,945.83
2023-12-09T01:11:57.506Z,945.85
2023-12-09T01:12:07.511Z,945.85
2023-12-09T01:12:17.502Z,945.84
2023-12-09T01:12:27.655Z,945.84
2023-12-09T01:12:47.538Z,945.85
2023-12-09T01:12:57.478Z,945.84
2023-12-09T01:13:07.474Z,945.84
2023-12-09T01:13:17.479Z,945.85
2023-12-09T01:13:27.545Z,945.86
2023-12-09T01:13:37.482Z,945.85
2023-12-09T01:13:47.484Z,945.84
2023-12-09T01:13:57.483Z,945.87
2023-12-09T01:14:07.478Z,945.86
2023-12-09T01:14:17.488Z,945.84
2023-12-09T01:14:27.590Z,945.86
2023-12-09T01:14:37.497Z,945.87
2023-12-09T01:14:57.484Z,945.85
2023-12-09T01:15:07.524Z,945.86
2023-12-09T01:15:17.533Z,945.85
2023-12-09T01:15:27.522Z,945.86
2023-12-09T01:15:37.504Z,945.85
2023-12-09T01:15:47.491Z,945.85
2023-12-09T01:15:57.490Z,945.86
2023-12-09T01:16:07.490Z,945.87
2023-12-09T01:16:17.499Z,945.86
2023-12-09T01:16:27.571Z,945.86
2023-12-09T01:16:37.487Z,945.87
2023-12-09T01:16:47.506Z,945.87
2023-12-09T01:16:57.501Z,945.88
2023-12-09T01:17:07.494Z,945.89
2023-12-09T01:17:17.491Z,945.89
2023-12-09T01:17:28.477Z,945.89
2023-12-09T01:17:37.532Z,945.90
2023-12-09T01:17:47.541Z,945.89
2023-12-09T01:17:57.579Z,945.89
2023-12-09T01:18:07.594Z,945.88
2023-12-09T01:18:17.613Z,945.89
2023-12-09T01:18:37.609Z,945.89
2023-12-09T01:18:47.532Z,945.89
2023-12-09T01:18:57.559Z,945.89
2023-12-09T01:19:07.539Z,945.88
2023-12-09T01:19:17.542Z,945.87
2023-12-09T01:19:27.658Z,945.87
2023-12-09T01:19:37.547Z,945.88
2023-12-09T01:19:47.556Z,945.87
2023-12-09T01:19:57.543Z,945.87
2023-12-09T01:20:17.516Z,945.87
2023-12-09T01:20:27.597Z,945.86
2023-12-09T01:20:37.532Z,945.87
2023-12-09T01:20:47.511Z,945.87
2023-12-09T01:20:57.551Z,945.86
2023-12-09T01:21:07.544Z,945.86
2023-12-09T01:21:17.525Z,945.85
2023-12-09T01:21:27.659Z,945.86
2023-12-09T01:21:47.515Z,945.85
2023-12-09T01:21:57.521Z,945.85
2023-12-09T01:22:07.513Z,945.85
2023-12-09T01:22:17.538Z,945.84
2023-12-09T01:22:27.813Z,945.86
2023-12-09T01:22:37.518Z,945.85
2023-12-09T01:22:47.551Z,945.84
2023-12-09T01:22:57.522Z,945.87
2023-12-09T01:23:07.524Z,945.88
2023-12-09T01:23:27.603Z,945.88
2023-12-09T01:23:37.544Z,945.87
2023-12-09T01:23:47.519Z,945.88
2023-12-09T01:23:57.545Z,945.88
2023-12-09T01:24:07.555Z,945.90
2023-12-09T01:24:17.580Z,945.89
2023-12-09T01:24:27.595Z,945.90
2023-12-09T01:24:37.531Z,945.90
2023-12-09T01:24:47.537Z,945.92
2023-12-09T01:24:57.541Z,945.91
2023-12-09T01:25:07.527Z,945.90
2023-12-09T01:25:17.539Z,945.91
2023-12-09T01:25:27.600Z,945.92
2023-12-09T01:25:37.536Z,945.91
2023-12-09T01:25:47.532Z,945.92
2023-12-09T01:25:57.536Z,945.91
2023-12-09T01:26:07.538Z,945.91
2023-12-09T01:26:17.541Z,945.91
2023-12-09T01:26:27.558Z,945.92
2023-12-09T01:26:37.548Z,945.92
2023-12-09T01:26:47.554Z,945.91
2023-12-09T01:26:57.565Z,945.91
2023-12-09T01:27:07.581Z,945.92
2023-12-09T01:27:17.639Z,945.90
2023-12-09T01:27:27.709Z,945.92
2023-12-09T01:27:37.543Z,945.91
2023-12-09T01:27:47.550Z,945.92
2023-12-09T01:27:57.548Z,945.91
2023-12-09T01:28:07.555Z,945.91
2023-12-09T01:28:17.554Z,945.91
2023-12-09T01:28:27.563Z,945.92
2023-12-09T01:28:37.552Z,945.93
2023-12-09T01:28:47.546Z,945.93
2023-12-09T01:28:57.559Z,945.93
2023-12-09T01:29:07.577Z,945.91
2023-12-09T01:29:17.557Z,945.92
2023-12-09T01:29:27.556Z,945.93
2023-12-09T01:29:37.550Z,945.93
2023-12-09T01:29:47.554Z,945.93
2023-12-09T01:29:57.577Z,945.94
2023-12-09T01:30:07.602Z,945.93
2023-12-09T01:30:27.574Z,945.93
2023-12-09T01:30:37.647Z,945.92
2023-12-09T01:30:47.572Z,945.92
2023-12-09T01:30:57.570Z,945.93
2023-12-09T01:31:07.590Z,945.93
2023-12-09T01:31:17.555Z,945.93
2023-12-09T01:31:27.559Z,945.93
2023-12-09T01:31:37.566Z,945.92
2023-12-09T01:31:47.558Z,945.94
2023-12-09T01:31:57.550Z,945.94
2023-12-09T01:32:17.599Z,945.94
2023-12-09T01:32:27.948Z,945.93
2023-12-09T01:32:37.589Z,945.91
2023-12-09T01:32:47.621Z,945.90
2023-12-09T01:32:57.694Z,945.93
2023-12-09T01:33:07.777Z,945.93
2023-12-09T01:33:17.650Z,945.93
2023-12-09T01:33:27.660Z,945.94
2023-12-09T01:33:37.741Z,945.92
2023-12-09T01:33:47.733Z,945.93
2023-12-09T01:33:57.736Z,945.93
2023-12-09T01:34:07.672Z,945.92
2023-12-09T01:34:17.723Z,945.92
2023-12-09T01:34:27.682Z,945.90
2023-12-09T01:34:47.634Z,945.91
2023-12-09T01:34:57.606Z,945.92
2023-12-09T01:35:07.581Z,945.92
2023-12-09T01:35:17.581Z,945.93
2023-12-09T01:35:27.585Z,945.92
2023-12-09T01:35:37.576Z,945.92
2023-12-09T01:35:47.584Z,945.90
2023-12-09T01:36:07.667Z,945.93
2023-12-09T01:36:17.609Z,945.93
2023-12-09T01:36:27.588Z,945.93
2023-12-09T01:36:37.580Z,945.94
2023-12-09T01:36:47.583Z,945.93
2023-12-09T01:36:57.605Z,945.93
2023-12-09T01:37:07.587Z,945.93
2023-12-09T01:37:17.590Z,945.92
2023-12-09T01:37:27.586Z,945.90
2023-12-09T01:37:37.588Z,945.92
2023-12-09T01:37:47.587Z,945.91
2023-12-09T01:38:07.599Z,945.92
2023-12-09T01:38:17.592Z,945.93
2023-12-09T01:38:27.605Z,945.94
2023-12-09T01:38:37.599Z,945.95
2023-12-09T01:38:47.592Z,945.94
2023-12-09T01:38:57.620Z,945.95
2023-12-09T01:39:07.624Z,945.95
2023-12-09T01:39:17.631Z,945.95
2023-12-09T01:39:27.622Z,945.95
2023-12-09T01:39:37.626Z,945.95
2023-12-09T01:39:47.600Z,945.95
2023-12-09T01:39:57.608Z,945.95
2023-12-09T01:40:07.617Z,945.95
2023-12-09T01:40:27.603Z,945.95
2023-12-09T01:40:37.616Z,945.97
2023-12-09T01:40:47.607Z,945.95
2023-12-09T01:40:57.628Z,945.95
2023-12-09T01:41:07.614Z,945.96
2023-12-09T01:41:17.605Z,945.95
2023-12-09T01:41:27.609Z,945.95
2023-12-09T01:41:37.623Z,945.95
2023-12-09T01:41:47.603Z,945.95
2023-12-09T01:41:57.627Z,945.94
2023-12-09T01:42:07.654Z,945.95
2023-12-09T01:42:17.649Z,945.94
2023-12-09T01:42:27.885Z,945.95
2023-12-09T01:42:37.665Z,945.96
2023-12-09T01:42:47.608Z,945.95
2023-12-09T01:42:57.613Z,945.95
2023-12-09T01:43:17.617Z,945.95
2023-12-09T01:43:27.627Z,945.94
2023-12-09T01:43:37.629Z,945.95
2023-12-09T01:43:47.622Z,945.95
2023-12-09T01:43:57.621Z,945.94
2023-12-09T01:44:07.614Z,945.93
2023-12-09T01:44:17.639Z,945.95
2023-12-09T01:44:27.623Z,945.97
2023-12-09T01:44:37.626Z,945.96
2023-12-09T01:44:47.636Z,945.97
2023-12-09T01:44:57.644Z,945.98
2023-12-09T01:45:07.660Z,945.98
2023-12-09T01:45:17.724Z,945.98
2023-12-09T01:45:27.647Z,945.98
2023-12-09T01:45:37.685Z,945.99
2023-12-09T01:45:47.633Z,946.00
2023-12-09T01:45:57.630Z,945.99
2023-12-09T01:46:17.633Z,946.00
2023-12-09T01:46:27.634Z,945.98
2023-12-09T01:46:37.635Z,945.99
2023-12-09T01:46:47.639Z,946.00
2023-12-09T01:46:57.662Z,946.00
2023-12-09T01:47:07.636Z,946.01
2023-12-09T01:47:17.634Z,946.01
2023-12-09T01:47:27.634Z,946.01
2023-12-09T01:47:37.677Z,946.02
2023-12-09T01:47:47.636Z,946.02
2023-12-09T01:47:57.694Z,946.02
2023-12-09T01:48:07.758Z,946.01
2023-12-09T01:48:18.768Z,946.01
2023-12-09T01:48:27.842Z,946.00
2023-12-09T01:48:47.775Z,946.00
2023-12-09T01:48:57.830Z,946.01
2023-12-09T01:49:07.874Z,946.00
2023-12-09T01:49:17.806Z,946.01
2023-12-09T01:49:27.836Z,945.99
2023-12-09T01:49:37.800Z,946.01
2023-12-09T01:49:47.742Z,946.03
2023-12-09T01:49:57.901Z,946.04
2023-12-09T01:50:07.780Z,946.05
2023-12-09T01:50:17.760Z,946.04
2023-12-09T01:50:37.740Z,946.01
2023-12-09T01:50:47.650Z,946.00
2023-12-09T01:50:57.700Z,945.99
2023-12-09T01:51:07.676Z,945.98
2023-12-09T01:51:17.690Z,945.99
2023-12-09T01:51:27.724Z,945.99
2023-12-09T01:51:37.656Z,946.01
2023-12-09T01:51:47.656Z,946.00
2023-12-09T01:51:57.664Z,946.01
2023-12-09T01:52:07.660Z,946.03
2023-12-09T01:52:17.662Z,946.02
2023-12-09T01:52:27.977Z,946.02
2023-12-09T01:52:37.659Z,946.04
2023-12-09T01:52:47.659Z,946.06
2023-12-09T01:52:57.674Z,946.06
2023-12-09T01:53:07.677Z,946.08
2023-12-09T01:53:27.667Z,946.03
2023-12-09T01:53:37.691Z,946.05
2023-12-09T01:53:47.662Z,946.01
2023-12-09T01:53:57.708Z,946.04
2023-12-09T01:54:07.703Z,946.02
2023-12-09T01:54:17.703Z,946.03
2023-12-09T01:54:27.676Z,946.02
2023-12-09T01:54:37.675Z,946.00
2023-12-09T01:54:47.688Z,946.03
2023-12-09T01:54:57.679Z,945.99
2023-12-09T01:55:07.685Z,946.01
2023-12-09T01:55:17.702Z,946.01
2023-12-09T01:55:27.674Z,946.01
2023-12-09T01:55:37.680Z,946.00
2023-12-09T01:55:47.678Z,946.00
2023-12-09T01:56:07.672Z,945.99
2023-12-09T01:56:17.687Z,945.99
2023-12-09T01:56:27.683Z,946.00
2023-12-09T01:56:37.680Z,946.00
2023-12-09T01:56:47.685Z,946.00
2023-12-09T01:56:57.751Z,946.00
2023-12-09T01:57:07.725Z,946.00
2023-12-09T01:57:17.708Z,945.99
2023-12-09T01:57:27.768Z,945.99
2023-12-09T01:57:37.685Z,945.99
2023-12-09T01:57:47.703Z,946.00
2023-12-09T01:57:57.683Z,946.00
2023-12-09T01:58:07.695Z,946.00
2023-12-09T01:58:17.676Z,946.00
2023-12-09T01:58:27.718Z,946.00
2023-12-09T01:58:47.710Z,946.00
2023-12-09T01:58:57.700Z,946.01
2023-12-09T01:59:07.687Z,946.00
2023-12-09T01:59:17.708Z,946.00
2023-12-09T01:59:27.702Z,945.99
2023-12-09T01:59:37.692Z,945.99
2023-12-09T01:59:47.709Z,945.98
2023-12-09T01:59:57.779Z,945.98
2023-12-09T02:00:07.727Z,945.99
2023-12-09T02:00:20.085Z,945.99
2023-12-09T02:00:27.751Z,945.99
2023-12-09T02:00:37.766Z,945.98
2023-12-09T02:00:47.771Z,945.97
2023-12-09T02:00:57.726Z,945.98
2023-12-09T02:01:07.739Z,945.98
2023-12-09T02:01:17.704Z,945.98
2023-12-09T02:01:27.703Z,945.97
2023-12-09T02:01:37.706Z,945.97
2023-12-09T02:01:47.713Z,945.97
2023-12-09T02:01:57.703Z,945.96
2023-12-09T02:02:07.756Z,945.96
2023-12-09T02:02:17.711Z,945.96
2023-12-09T02:02:28.003Z,945.97
2023-12-09T02:02:37.758Z,945.97
2023-12-09T02:02:47.798Z,945.98
2023-12-09T02:02:57.816Z,945.99
2023-12-09T02:03:07.901Z,945.98
2023-12-09T02:03:17.787Z,946.00
2023-12-09T02:03:27.808Z,946.00
2023-12-09T02:03:37.810Z,945.99
2023-12-09T02:03:47.823Z,946.00
2023-12-09T02:03:57.753Z,946.00
2023-12-09T02:04:07.747Z,946.01
2023-12-09T02:04:27.742Z,946.02
2023-12-09T02:04:37.750Z,946.01
2023-12-09T02:04:47.769Z,946.00
2023-12-09T02:04:57.720Z,946.02
2023-12-09T02:05:07.753Z,946.02
2023-12-09T02:05:17.852Z,946.02
2023-12-09T02:05:28.501Z,946.02
2023-12-09T02:05:37.757Z,946.00
2023-12-09T02:05:47.734Z,946.01
2023-12-09T02:05:57.764Z,946.02
2023-12-09T02:06:07.775Z,946.03
2023-12-09T02:06:27.807Z,946.02
2023-12-09T02:06:37.735Z,946.02
2023-12-09T02:06:47.730Z,946.01
2023-12-09T02:06:57.733Z,946.01
2023-12-09T02:07:07.766Z,946.00
2023-12-09T02:07:17.746Z,946.00
2023-12-09T02:07:27.744Z,945.99
2023-12-09T02:07:37.739Z,945.99
2023-12-09T02:07:47.741Z,945.99
2023-12-09T02:07:57.730Z,945.99
2023-12-09T02:08:07.735Z,946.01
2023-12-09T02:08:17.736Z,946.01
2023-12-09T02:08:27.757Z,946.02
2023-12-09T02:08:37.740Z,946.01
2023-12-09T02:08:47.740Z,946.01
2023-12-09T02:08:57.773Z,946.01
2023-12-09T02:09:07.760Z,946.01
2023-12-09T02:09:17.759Z,946.01
2023-12-09T02:09:27.822Z,946.01
2023-12-09T02:09:37.747Z,946.01
2023-12-09T02:09:47.738Z,946.00
2023-12-09T02:09:57.739Z,946.00
2023-12-09T02:10:07.753Z,946.00
2023-12-09T02:10:17.793Z,946.00
2023-12-09T02:10:27.736Z,945.99
2023-12-09T02:10:37.744Z,946.00
2023-12-09T02:10:47.750Z,945.99
2023-12-09T02:10:57.747Z,946.00
2023-12-09T02:11:07.745Z,946.00
2023-12-09T02:11:27.744Z,946.00
2023-12-09T02:11:37.745Z,946.01
2023-12-09T02:11:47.744Z,946.01
2023-12-09T02:11:57.767Z,946.01
2023-12-09T02:12:07.767Z,946.01
2023-12-09T02:12:17.763Z,946.01
2023-12-09T02:12:28.047Z,946.01
2023-12-09T02:12:37.958Z,946.01
2023-12-09T02:12:47.755Z,946.01
2023-12-09T02:12:57.749Z,946.00
2023-12-09T02:13:17.755Z,946.01
2023-12-09T02:13:27.760Z,946.01
2023-12-09T02:13:37.758Z,946.02
2023-12-09T02:13:47.755Z,946.02
2023-12-09T02:13:57.756Z,946.02
2023-12-09T02:14:07.773Z,946.03
2023-12-09T02:14:17.770Z,946.02
2023-12-09T02:14:27.766Z,946.02
2023-12-09T02:14:37.775Z,946.02
2023-12-09T02:14:47.786Z,946.02
2023-12-09T02:14:57.798Z,946.02